Time;durP1;ratioP1;P1;durP2;ratioP2;P2;SDS_P1;SDS_P2;PMS_P1;PMS_P2;Temp;Humidity;BMP_temperature;BMP_pressure;BME280_temperature;BME280_humidity;BME280_pressure;Samples;Min_cycle;Max_cycle;Signal;HPM_P1;HPM_P2
2024/03/08 00:01:45;;;;;;;27.50;14.95;;;;;;;6.24;100.00;100581.75;5134037;27;20086;-44
2024/03/08 00:04:15;;;;;;;27.10;15.85;;;;;;;6.26;100.00;100582.56;5134230;27;20051;-44
2024/03/08 00:06:45;;;;;;;26.63;15.40;;;;;;;6.40;100.00;100582.06;5134363;27;20133;-43
2024/03/08 00:09:15;;;;;;;28.70;15.90;;;;;;;6.48;100.00;100581.78;5133883;27;20049;-43
2024/03/08 00:11:44;;;;;;;28.38;15.23;;;;;;;6.31;100.00;100577.97;5133820;27;20043;-43
2024/03/08 00:14:12;;;;;;;27.00;15.25;;;;;;;6.54;100.00;100584.19;5133937;27;20054;-47
2024/03/08 00:16:43;;;;;;;28.35;16.33;;;;;;;6.44;100.00;100582.81;5134051;27;20051;-42
2024/03/08 00:19:12;;;;;;;26.67;15.40;;;;;;;6.34;100.00;100581.41;5134147;27;20047;-44
2024/03/08 00:21:41;;;;;;;29.70;16.10;;;;;;;6.50;100.00;100587.88;5133758;27;20130;-44
2024/03/08 00:24:09;;;;;;;29.13;15.82;;;;;;;6.52;100.00;100591.31;5132803;27;20043;-43
2024/03/08 00:26:39;;;;;;;27.08;15.40;;;;;;;6.44;100.00;100590.75;5133549;27;20048;-46
2024/03/08 00:29:07;;;;;;;28.45;16.02;;;;;;;6.55;100.00;100588.56;5133792;27;20043;-44
2024/03/08 00:31:36;;;;;;;28.38;15.85;;;;;;;6.70;100.00;100576.50;5133580;27;20498;-44
2024/03/08 00:34:04;;;;;;;28.65;15.60;;;;;;;6.70;100.00;100580.03;5115486;27;20074;-45
2024/03/08 00:36:32;;;;;;;26.85;15.13;;;;;;;6.65;100.00;100576.66;5133420;27;20092;-44
2024/03/08 00:39:01;;;;;;;29.92;15.35;;;;;;;6.38;100.00;100577.75;5133354;27;20045;-43
2024/03/08 00:41:30;;;;;;;28.33;15.20;;;;;;;6.51;100.00;100579.88;5133455;27;20484;-43
2024/03/08 00:44:00;;;;;;;28.75;15.95;;;;;;;6.55;100.00;100575.28;5133148;27;20518;-44
2024/03/08 00:46:29;;;;;;;32.55;16.35;;;;;;;6.59;100.00;100567.19;5133381;27;20054;-42
2024/03/08 00:48:58;;;;;;;31.40;16.83;;;;;;;6.67;100.00;100566.91;5133340;27;20050;-44
2024/03/08 00:51:26;;;;;;;28.75;15.98;;;;;;;6.41;100.00;100572.31;5133173;27;20043;-43
2024/03/08 00:53:54;;;;;;;29.58;16.20;;;;;;;6.34;100.00;100568.16;5133028;27;20051;-43
2024/03/08 00:56:24;;;;;;;29.08;16.17;;;;;;;6.55;100.00;100570.00;5133172;27;20074;-44
2024/03/08 00:58:53;;;;;;;27.05;15.13;;;;;;;6.29;100.00;100563.94;5132939;27;20488;-43
2024/03/08 01:01:24;;;;;;;30.70;16.60;;;;;;;6.36;100.00;100563.66;5132811;27;20151;-43
2024/03/08 01:03:53;;;;;;;28.15;15.98;;;;;;;6.60;100.00;100560.09;5132844;27;20071;-43
2024/03/08 01:06:21;;;;;;;29.98;16.50;;;;;;;6.69;100.00;100564.19;5132798;27;20074;-43
2024/03/08 01:08:51;;;;;;;27.27;15.60;;;;;;;6.49;100.00;100565.81;5132848;27;20054;-43
2024/03/08 01:11:20;;;;;;;29.83;16.27;;;;;;;6.45;100.00;100563.31;5132815;27;20085;-44
2024/03/08 01:13:49;;;;;;;26.65;15.32;;;;;;;6.50;100.00;100556.06;5114564;27;20047;-44
2024/03/08 01:16:18;;;;;;;31.85;16.40;;;;;;;6.46;100.00;100557.09;5132689;27;20122;-43
2024/03/08 01:18:47;;;;;;;30.63;16.55;;;;;;;6.39;100.00;100561.78;5133241;27;20118;-43
2024/03/08 01:21:16;;;;;;;29.00;16.83;;;;;;;6.32;100.00;100553.19;5134411;27;20066;-44
2024/03/08 01:23:44;;;;;;;29.02;16.63;;;;;;;6.37;100.00;100549.50;5132968;27;20100;-44
2024/03/08 01:26:14;;;;;;;32.05;17.20;;;;;;;6.27;100.00;100559.59;5132617;27;20441;-43
2024/03/08 01:28:43;;;;;;;31.85;16.75;;;;;;;6.03;100.00;100558.72;5132189;27;20051;-43
2024/03/08 01:31:12;;;;;;;30.95;17.08;;;;;;;6.21;100.00;100560.69;5132477;27;20138;-43
2024/03/08 01:33:40;;;;;;;31.30;16.73;;;;;;;6.11;100.00;100555.78;5132030;27;20043;-43
2024/03/08 01:36:10;;;;;;;30.55;16.30;;;;;;;6.10;100.00;100560.22;5132324;27;20047;-43
2024/03/08 01:38:39;;;;;;;29.50;16.42;;;;;;;6.31;100.00;100556.78;5131940;27;20061;-43
2024/03/08 01:41:07;;;;;;;31.45;16.90;;;;;;;6.57;100.00;100557.56;5132121;27;20138;-45
2024/03/08 01:43:35;;;;;;;32.13;17.48;;;;;;;6.56;100.00;100555.81;5132031;27;20488;-44
2024/03/08 01:46:04;;;;;;;34.75;18.65;;;;;;;6.29;100.00;100561.28;5132414;27;20125;-43
2024/03/08 01:48:33;;;;;;;33.10;18.73;;;;;;;6.51;100.00;100563.97;5132280;27;20051;-42
2024/03/08 01:51:02;;;;;;;34.10;18.52;;;;;;;6.65;100.00;100550.16;5132493;27;20054;-42
2024/03/08 01:53:32;;;;;;;35.85;19.33;;;;;;;6.69;100.00;100554.44;5132141;27;20605;-42
2024/03/08 01:56:01;;;;;;;34.70;18.63;;;;;;;6.69;100.00;100554.44;5131996;27;20043;-44
2024/03/08 01:58:30;;;;;;;33.72;18.58;;;;;;;6.77;100.00;100548.84;5131685;27;20059;-44
2024/03/08 02:00:58;;;;;;;32.15;18.50;;;;;;;6.63;100.00;100552.00;5131696;27;20122;-44
2024/03/08 02:03:27;;;;;;;32.78;17.63;;;;;;;6.50;100.00;100550.78;5131743;27;20045;-43
2024/03/08 02:05:58;;;;;;;34.15;18.25;;;;;;;6.59;100.00;100555.72;5131673;27;20050;-44
2024/03/08 02:08:27;;;;;;;33.97;18.30;;;;;;;6.59;100.00;100548.63;5131843;27;20150;-44
2024/03/08 02:10:57;;;;;;;35.67;19.42;;;;;;;6.71;100.00;100549.94;5131491;27;20522;-43
2024/03/08 02:13:25;;;;;;;37.00;19.05;;;;;;;6.75;100.00;100546.22;5131404;27;20043;-44
2024/03/08 02:15:54;;;;;;;32.65;18.13;;;;;;;6.56;100.00;100556.72;5132057;27;20092;-43
2024/03/08 02:18:24;;;;;;;38.78;20.58;;;;;;;6.59;100.00;100555.72;5131733;27;20043;-43
2024/03/08 02:20:54;;;;;;;37.60;19.58;;;;;;;6.69;100.00;100554.44;5131622;27;20100;-42
2024/03/08 02:23:24;;;;;;;37.22;20.58;;;;;;;6.61;100.00;100559.16;5131261;27;20433;-44
2024/03/08 02:25:54;;;;;;;40.60;20.55;;;;;;;6.52;100.00;100559.53;5131846;27;20062;-43
2024/03/08 02:28:23;;;;;;;42.72;20.65;;;;;;;6.54;100.00;100562.97;5131510;27;20043;-44
2024/03/08 02:30:54;;;;;;;39.92;21.48;;;;;;;6.43;100.00;100565.19;5131651;28;20062;-44
2024/03/08 02:33:24;;;;;;;41.42;21.67;;;;;;;6.43;100.00;100565.19;5131469;27;20426;-43
2024/03/08 02:35:54;;;;;;;45.00;22.25;;;;;;;6.42;100.00;100558.16;5130948;28;20564;-43
2024/03/08 02:38:24;;;;;;;44.47;21.25;;;;;;;6.44;100.00;100561.59;5131565;27;20074;-43
2024/03/08 02:40:54;;;;;;;45.05;22.50;;;;;;;6.36;100.00;100559.22;5131521;27;20065;-44
2024/03/08 02:43:24;;;;;;;46.30;24.00;;;;;;;6.28;100.00;100556.91;5131392;27;20039;-43
2024/03/08 02:45:53;;;;;;;47.15;24.33;;;;;;;6.37;100.00;100560.09;5131435;27;20075;-43
2024/03/08 02:48:22;;;;;;;46.22;22.83;;;;;;;6.21;100.00;100555.41;5134207;27;20130;-44
2024/03/08 02:50:52;;;;;;;47.33;24.05;;;;;;;6.26;100.00;100560.50;5135419;27;20047;-44
2024/03/08 02:53:22;;;;;;;44.95;23.58;;;;;;;6.35;100.00;100559.31;5135426;27;20043;-42
2024/03/08 02:55:50;;;;;;;50.38;24.30;;;;;;;6.49;100.00;100559.66;5135688;27;20047;-43
2024/03/08 02:58:18;;;;;;;48.50;24.05;;;;;;;6.46;100.00;100567.69;5135528;27;20069;-44
2024/03/08 03:00:47;;;;;;;44.20;22.80;;;;;;;6.52;100.00;100564.81;5135140;27;20059;-45
2024/03/08 03:03:16;;;;;;;47.63;24.20;;;;;;;6.55;100.00;100564.69;5134695;27;20384;-45
2024/03/08 03:05:44;;;;;;;52.85;24.77;;;;;;;6.62;100.00;100566.19;5135579;27;20498;-44
2024/03/08 03:08:16;;;;;;;51.03;25.67;;;;;;;6.54;100.00;100568.28;5135543;27;20049;-44
2024/03/08 03:10:47;;;;;;;50.70;23.52;;;;;;;6.49;100.00;100572.91;5135539;27;20043;-44
2024/03/08 03:13:15;;;;;;;49.95;24.63;;;;;;;6.68;100.00;100567.75;5135200;27;20051;-42
2024/03/08 03:15:47;;;;;;;51.47;25.15;;;;;;;6.57;100.00;100573.47;5135228;27;20104;-42
2024/03/08 03:18:16;;;;;;;52.53;26.52;;;;;;;6.42;100.00;100574.06;5134950;27;20511;-45
2024/03/08 03:20:44;;;;;;;52.15;25.38;;;;;;;6.36;100.00;100569.84;5134811;27;20546;-44
2024/03/08 03:23:14;;;;;;;48.67;24.67;;;;;;;6.44;100.00;100572.19;5135040;27;20070;-42
2024/03/08 03:25:46;;;;;;;47.85;24.98;;;;;;;6.52;100.00;100565.69;5134868;27;20047;-43
2024/03/08 03:28:17;;;;;;;51.85;25.90;;;;;;;6.38;100.00;100580.41;5134614;27;20515;-43
2024/03/08 03:30:47;;;;;;;49.42;25.08;;;;;;;6.29;100.00;100574.53;5134653;27;20061;-43
2024/03/08 03:33:16;;;;;;;50.55;25.35;;;;;;;6.35;100.00;100580.50;5134717;27;20047;-43
2024/03/08 03:35:45;;;;;;;51.63;25.45;;;;;;;6.19;100.00;100578.44;5134715;27;20047;-42
2024/03/08 03:38:14;;;;;;;51.38;24.60;;;;;;;6.07;100.00;100583.28;5134594;27;20043;-43
2024/03/08 03:40:45;;;;;;;49.40;25.60;;;;;;;6.04;100.00;100578.97;5134763;27;20143;-44
2024/03/08 03:43:14;;;;;;;50.97;25.73;;;;;;;6.05;100.00;100580.72;5134703;27;20051;-43
2024/03/08 03:45:43;;;;;;;58.13;25.63;;;;;;;5.99;100.00;100575.66;5134558;27;20133;-44
2024/03/08 03:48:11;;;;;;;50.50;24.48;;;;;;;6.21;100.00;100571.28;5134804;27;20047;-43
2024/03/08 03:50:40;;;;;;;50.17;24.80;;;;;;;6.44;100.00;100574.84;5134637;27;20134;-43
2024/03/08 03:53:09;;;;;;;52.78;26.52;;;;;;;6.37;100.00;100565.41;5134603;27;20043;-43
2024/03/08 03:55:39;;;;;;;49.45;25.60;;;;;;;6.15;100.00;100571.50;5134025;27;20039;-44
2024/03/08 03:58:09;;;;;;;53.75;25.35;;;;;;;6.13;100.00;100569.84;5134158;27;20535;-44
2024/03/08 04:00:40;;;;;;;53.65;25.38;;;;;;;6.30;100.00;100583.34;5133127;27;20576;-43
2024/03/08 04:03:08;;;;;;;48.35;24.77;;;;;;;6.22;100.00;100577.44;5133947;27;20047;-44
2024/03/08 04:05:37;;;;;;;49.63;24.00;;;;;;;6.35;100.00;100577.84;5134240;27;20043;-45
2024/03/08 04:08:06;;;;;;;52.80;25.77;;;;;;;6.45;100.00;100574.78;5134259;27;20051;-44
2024/03/08 04:10:35;;;;;;;53.35;24.30;;;;;;;6.40;100.00;100578.56;5133589;27;20079;-44
2024/03/08 04:13:03;;;;;;;52.30;26.17;;;;;;;6.43;100.00;100570.47;5134093;27;20165;-45
2024/03/08 04:15:32;;;;;;;54.17;25.27;;;;;;;6.50;100.00;100572.84;5134250;27;20054;-42
2024/03/08 04:18:02;;;;;;;49.83;25.45;;;;;;;6.47;100.00;100580.91;5133731;27;20412;-46
2024/03/08 04:20:30;;;;;;;52.95;25.05;;;;;;;6.48;100.00;100573.81;5133705;27;20053;-42
2024/03/08 04:22:58;;;;;;;47.25;23.80;;;;;;;6.30;100.00;100573.59;5133615;27;20396;-42
2024/03/08 04:25:27;;;;;;;52.65;25.27;;;;;;;6.32;100.00;100570.88;5133753;27;20063;-44
2024/03/08 04:27:56;;;;;;;52.33;24.73;;;;;;;6.16;100.00;100573.22;5133757;27;20111;-44
2024/03/08 04:30:24;;;;;;;50.88;25.90;;;;;;;6.32;100.00;100573.53;5133576;27;20047;-44
2024/03/08 04:32:53;;;;;;;55.88;25.98;;;;;;;6.36;100.00;100574.28;5133534;27;20074;-43
2024/03/08 04:35:22;;;;;;;49.50;24.42;;;;;;;6.18;100.00;100576.72;5133382;27;20488;-43
2024/03/08 04:37:51;;;;;;;58.97;25.50;;;;;;;6.34;100.00;100582.28;5133860;27;20039;-43
2024/03/08 04:40:19;;;;;;;55.78;26.77;;;;;;;6.52;100.00;100580.72;5133213;27;20146;-41
2024/03/08 04:42:50;;;;;;;53.65;25.88;;;;;;;6.53;100.00;100574.50;5133286;27;20043;-45
2024/03/08 04:45:19;;;;;;;55.10;25.90;;;;;;;6.37;100.00;100578.66;5133252;27;20096;-44
2024/03/08 04:47:47;;;;;;;54.70;25.27;;;;;;;6.54;100.00;100584.19;5133361;27;20065;-44
2024/03/08 04:50:16;;;;;;;49.75;26.00;;;;;;;6.55;100.00;100585.91;5114966;27;20035;-44
2024/03/08 04:52:46;;;;;;;48.33;25.02;;;;;;;6.65;100.00;100586.41;5133311;27;20119;-44
2024/03/08 04:55:14;;;;;;;51.50;27.00;;;;;;;6.68;100.00;100587.19;5133023;27;20104;-44
2024/03/08 04:57:46;;;;;;;50.65;24.67;;;;;;;6.67;100.00;100584.59;5133328;27;20463;-44
2024/03/08 05:00:15;;;;;;;51.88;25.38;;;;;;;6.58;100.00;100585.81;5132823;27;20096;-43
2024/03/08 05:02:44;;;;;;;56.65;27.40;;;;;;;6.74;100.00;100581.63;5132747;27;20059;-43
2024/03/08 05:05:12;;;;;;;55.92;25.45;;;;;;;6.81;100.00;100580.47;5132885;27;20539;-44
2024/03/08 05:07:41;;;;;;;50.35;25.35;;;;;;;6.48;100.00;100581.78;5132867;27;20457;-44
2024/03/08 05:10:11;;;;;;;52.00;24.90;;;;;;;6.49;100.00;100591.47;5132338;27;20088;-42
2024/03/08 05:12:39;;;;;;;56.22;26.67;;;;;;;6.40;100.00;100581.19;5132427;27;20125;-42
2024/03/08 05:15:08;;;;;;;59.95;26.17;;;;;;;6.44;100.00;100582.81;5132378;27;20040;-43
2024/03/08 05:17:37;;;;;;;52.55;26.05;;;;;;;6.66;100.00;100578.44;5132504;27;20062;-45
2024/03/08 05:20:08;;;;;;;57.05;27.08;;;;;;;6.80;100.00;100583.19;5132425;27;20472;-45
2024/03/08 05:22:36;;;;;;;52.78;25.38;;;;;;;6.68;100.00;100589.81;5132205;27;20099;-43
2024/03/08 05:25:08;;;;;;;57.22;26.65;;;;;;;6.59;100.00;100588.38;5132461;27;20055;-43
2024/03/08 05:27:37;;;;;;;55.45;26.35;;;;;;;6.38;100.00;100593.66;5132541;27;20123;-44
2024/03/08 05:30:13;;;;;;;55.45;26.48;;;;;;;6.32;100.00;100597.38;5132512;27;20043;-44
2024/03/08 05:32:44;;;;;;;54.10;26.02;;;;;;;6.33;100.00;100599.09;5131331;27;20051;-43
2024/03/08 05:35:16;;;;;;;50.88;25.55;;;;;;;6.35;100.00;100605.19;5130548;27;20075;-44
2024/03/08 05:37:44;;;;;;;52.60;25.20;;;;;;;6.27;100.00;100608.16;5132044;27;20051;-44
2024/03/08 05:40:13;;;;;;;52.67;26.88;;;;;;;6.05;100.00;100606.31;5132116;27;20049;-45
2024/03/08 05:42:47;;;;;;;52.90;25.95;;;;;;;6.25;100.00;100603.81;5131904;27;20441;-43
2024/03/08 05:45:15;;;;;;;55.72;26.38;;;;;;;6.28;100.00;100609.88;5132451;27;20062;-43
2024/03/08 05:47:44;;;;;;;60.50;26.52;;;;;;;6.24;100.00;100613.56;5132251;27;20118;-45
2024/03/08 05:50:12;;;;;;;53.85;26.20;;;;;;;6.01;100.00;100617.03;5131871;27;20058;-44
2024/03/08 05:52:40;;;;;;;56.40;26.35;;;;;;;5.99;100.00;100613.59;5131426;27;20524;-43
2024/03/08 05:55:09;;;;;;;56.05;26.15;;;;;;;5.96;100.00;100615.47;5132028;27;20061;-44
2024/03/08 05:57:39;;;;;;;59.67;26.55;;;;;;;6.20;100.00;100624.31;5132068;27;20051;-43
2024/03/08 06:00:11;;;;;;;61.15;26.90;;;;;;;6.37;100.00;100624.59;5131665;27;20043;-43
2024/03/08 06:02:40;;;;;;;57.75;28.13;;;;;;;6.19;100.00;100626.13;5131801;27;20047;-44
2024/03/08 06:05:11;;;;;;;59.83;27.42;;;;;;;6.29;100.00;100626.66;5131815;27;20047;-45
2024/03/08 06:07:40;;;;;;;57.63;26.48;;;;;;;6.41;100.00;100625.31;5131625;27;20070;-44
2024/03/08 06:10:12;;;;;;;56.25;26.90;;;;;;;6.47;100.00;100622.47;5131097;27;20115;-43
2024/03/08 06:12:41;;;;;;;56.55;25.38;;;;;;;6.39;100.00;100624.53;5131151;27;20042;-44
2024/03/08 06:15:14;;;;;;;58.22;26.40;;;;;;;6.36;100.00;100621.97;5131646;27;20051;-44
2024/03/08 06:17:43;;;;;;;53.33;25.25;;;;;;;6.50;100.00;100625.84;5131353;27;20115;-44
2024/03/08 06:20:12;;;;;;;55.30;25.88;;;;;;;6.56;100.00;100622.06;5131396;27;20073;-43
2024/03/08 06:22:42;;;;;;;60.40;26.92;;;;;;;6.69;100.00;100626.00;5130503;27;20520;-43
2024/03/08 06:25:13;;;;;;;58.80;27.55;;;;;;;6.65;100.00;100629.69;5131693;27;20473;-44
2024/03/08 06:27:42;;;;;;;59.00;26.70;;;;;;;6.71;100.00;100632.13;5131530;27;20051;-44
2024/03/08 06:30:13;;;;;;;55.92;26.55;;;;;;;6.76;100.00;100627.50;5131434;27;20051;-43
2024/03/08 06:32:42;;;;;;;54.80;26.70;;;;;;;6.68;100.00;100631.38;5131416;28;20058;-43
2024/03/08 06:35:12;;;;;;;55.28;26.00;;;;;;;6.71;100.00;100632.13;5131499;28;20509;-43
2024/03/08 06:37:42;;;;;;;58.97;26.33;;;;;;;6.53;100.00;100635.47;5131789;28;20050;-44
2024/03/08 06:40:13;;;;;;;53.28;25.88;;;;;;;6.72;100.00;100631.19;5131291;28;20095;-43
2024/03/08 06:42:42;;;;;;;56.15;26.58;;;;;;;6.60;100.00;100634.31;5130942;28;20645;-43
2024/03/08 06:45:12;;;;;;;54.90;26.25;;;;;;;6.43;100.00;100644.66;5131175;28;20083;-44
2024/03/08 06:47:43;;;;;;;54.92;26.23;;;;;;;6.56;100.00;100635.34;5131241;28;20082;-44
2024/03/08 06:50:12;;;;;;;54.05;25.70;;;;;;;6.57;100.00;100637.94;5131188;28;20055;-45
2024/03/08 06:52:42;;;;;;;47.90;24.30;;;;;;;6.42;100.00;100646.47;5131107;28;20083;-44
2024/03/08 06:55:11;;;;;;;53.17;25.48;;;;;;;6.43;100.00;100644.66;5131641;28;20541;-46
2024/03/08 06:57:41;;;;;;;54.30;26.52;;;;;;;6.46;100.00;100644.53;5131359;28;20119;-44
2024/03/08 07:00:18;;;;;;;52.95;26.75;;;;;;;6.52;100.00;100645.19;5130686;28;20051;-44
2024/03/08 07:02:48;;;;;;;55.10;25.02;;;;;;;6.44;100.00;100651.69;5131204;28;20047;-44
2024/03/08 07:05:17;;;;;;;53.72;25.63;;;;;;;6.51;100.00;100642.59;5131340;28;20049;-43
2024/03/08 07:07:48;;;;;;;51.60;25.98;;;;;;;6.40;100.00;100648.31;5131093;28;20416;-45
2024/03/08 07:10:16;;;;;;;54.83;25.55;;;;;;;6.57;100.00;100645.03;5131387;28;20050;-45
2024/03/08 07:12:46;;;;;;;57.45;26.42;;;;;;;6.53;100.00;100651.34;5129826;28;20514;-45
2024/03/08 07:15:19;;;;;;;55.15;25.73;;;;;;;6.49;100.00;100650.63;5126685;27;20075;-45
2024/03/08 07:17:48;;;;;;;56.08;26.48;;;;;;;6.64;100.00;100648.31;5131079;27;20054;-42
2024/03/08 07:20:18;;;;;;;53.85;25.52;;;;;;;6.51;100.00;100648.78;5131200;28;20075;-44
2024/03/08 07:22:50;;;;;;;55.78;26.17;;;;;;;6.11;100.00;100649.34;5130735;27;20078;-43
2024/03/08 07:25:20;;;;;;;58.30;26.25;;;;;;;6.32;100.00;100653.88;5130846;28;20525;-43
2024/03/08 07:27:51;;;;;;;59.80;26.40;;;;;;;6.35;100.00;100654.69;5130930;28;20412;-43
2024/03/08 07:33:11;;;;;;;56.65;25.83;;;;;;;6.30;100.00;100654.88;5130725;27;20054;-44
2024/03/08 07:35:40;;;;;;;56.35;27.05;;;;;;;6.51;100.00;100654.06;5134268;27;20400;-42
2024/03/08 07:38:09;;;;;;;56.03;27.13;;;;;;;6.56;100.00;100656.53;5134243;27;20476;-42
2024/03/08 07:40:40;;;;;;;55.40;25.75;;;;;;;6.57;100.00;100656.50;5143180;27;20373;-44
2024/03/08 07:43:10;;;;;;;54.65;26.05;;;;;;;6.70;100.00;100664.84;5143479;27;20043;-43
2024/03/08 07:45:40;;;;;;;56.25;27.42;;;;;;;6.92;100.00;100656.06;5140236;27;20050;-45
2024/03/08 07:48:09;;;;;;;59.83;26.75;;;;;;;6.97;100.00;100660.28;5143899;27;20066;-44
2024/03/08 07:50:38;;;;;;;54.85;26.00;;;;;;;6.77;100.00;100662.84;5139531;27;20050;-41
2024/03/08 07:53:07;;;;;;;54.58;26.20;;;;;;;6.73;100.00;100664.72;5134048;27;20043;-44
2024/03/08 07:55:36;;;;;;;60.47;27.05;;;;;;;6.61;100.00;100665.19;5134511;27;20047;-44
2024/03/08 07:58:05;;;;;;;59.75;27.52;;;;;;;6.78;100.00;100656.63;5134114;27;20153;-43
2024/03/08 08:00:33;;;;;;;56.42;27.05;;;;;;;6.81;100.00;100660.00;5134079;27;20418;-44
2024/03/08 08:03:03;;;;;;;58.88;26.27;;;;;;;7.08;100.00;100657.22;5134036;27;20406;-46
2024/03/08 08:05:35;;;;;;;54.47;26.08;;;;;;;7.08;100.00;100660.72;5134129;27;20149;-44
2024/03/08 08:08:06;;;;;;;56.45;25.65;;;;;;;6.87;100.00;100657.13;5134050;27;20532;-44
2024/03/08 08:10:34;;;;;;;60.40;27.27;;;;;;;6.95;100.00;100661.25;5133779;27;20055;-45
2024/03/08 08:13:04;;;;;;;65.22;29.00;;;;;;;6.79;100.00;100661.84;5134071;27;20043;-44
2024/03/08 08:15:34;;;;;;;58.95;27.15;;;;;;;6.73;100.00;100663.88;5133870;27;20043;-45
2024/03/08 08:18:05;;;;;;;61.15;27.83;;;;;;;6.76;100.00;100663.78;5133678;27;20411;-45
2024/03/08 08:20:35;;;;;;;59.67;28.40;;;;;;;6.93;100.00;100665.75;5133974;27;20053;-45
2024/03/08 08:23:03;;;;;;;59.35;28.33;;;;;;;7.01;100.00;100653.06;5133049;27;20120;-45
2024/03/08 08:25:34;;;;;;;57.03;26.83;;;;;;;6.78;100.00;100662.78;5133561;27;20461;-44
2024/03/08 08:28:04;;;;;;;63.13;28.20;;;;;;;6.73;100.00;100670.03;5133925;27;20101;-43
2024/03/08 08:30:33;;;;;;;59.33;28.25;;;;;;;6.68;100.00;100666.69;5133672;27;20042;-44
2024/03/08 08:33:05;;;;;;;60.25;28.50;;;;;;;6.67;100.00;100661.47;5133354;27;20093;-44
2024/03/08 08:35:33;;;;;;;63.15;28.30;;;;;;;6.70;100.00;100664.00;5133703;27;20122;-43
2024/03/08 08:38:03;;;;;;;64.07;28.30;;;;;;;6.65;100.00;100656.19;5133298;27;20047;-45
2024/03/08 08:40:32;;;;;;;60.55;27.23;;;;;;;6.61;100.00;100665.19;5132453;27;20057;-44
2024/03/08 08:43:03;;;;;;;64.57;29.73;;;;;;;6.72;100.00;100654.19;5132405;27;20126;-44
2024/03/08 08:45:31;;;;;;;72.43;29.48;;;;;;;6.82;100.00;100664.38;5132436;27;20047;-44
2024/03/08 08:48:00;;;;;;;65.97;29.63;;;;;;;6.79;100.00;100656.56;5133143;27;20071;-44
2024/03/08 08:50:30;;;;;;;62.63;29.05;;;;;;;6.69;100.00;100651.66;5132600;27;20491;-43
2024/03/08 08:52:59;;;;;;;68.40;29.38;;;;;;;6.65;100.00;100658.84;5132989;27;20044;-43
2024/03/08 08:55:28;;;;;;;64.55;29.88;;;;;;;6.95;100.00;100663.91;5132966;27;20130;-43
2024/03/08 08:57:57;;;;;;;70.05;30.13;;;;;;;7.04;100.00;100659.09;5132482;27;20525;-43
2024/03/08 09:00:26;;;;;;;64.03;29.17;;;;;;;6.93;100.00;100655.16;5132627;27;20085;-43
2024/03/08 09:02:57;;;;;;;62.47;28.50;;;;;;;6.74;100.00;100653.19;5132619;27;20039;-43
2024/03/08 09:05:27;;;;;;;63.17;28.50;;;;;;;6.77;100.00;100660.19;5132987;27;20088;-43
2024/03/08 09:07:57;;;;;;;68.25;29.38;;;;;;;6.99;100.00;100654.91;5132836;27;20051;-44
2024/03/08 09:10:26;;;;;;;65.18;28.92;;;;;;;7.18;100.00;100653.28;5133158;27;20044;-44
2024/03/08 09:12:57;;;;;;;61.00;29.02;;;;;;;7.09;100.00;100661.59;5132448;27;20051;-45
2024/03/08 09:15:28;;;;;;;58.85;28.02;;;;;;;7.36;100.00;100660.50;5132806;27;20387;-43
2024/03/08 09:17:57;;;;;;;61.83;28.10;;;;;;;7.13;100.00;100653.44;5132970;27;20407;-46
2024/03/08 09:20:25;;;;;;;58.60;27.40;;;;;;;7.03;100.00;100656.50;5132406;27;20049;-44
2024/03/08 09:22:54;;;;;;;61.00;28.35;;;;;;;6.92;100.00;100656.06;5132173;27;20043;-45
2024/03/08 09:25:25;;;;;;;67.93;28.38;;;;;;;6.83;100.00;100652.84;5132200;27;20123;-45
2024/03/08 09:27:54;;;;;;;65.60;29.05;;;;;;;6.82;100.00;100659.06;5128998;27;20482;-44
2024/03/08 09:30:22;;;;;;;62.58;28.05;;;;;;;6.95;100.00;100658.59;5132199;27;20126;-44
2024/03/08 09:32:52;;;;;;;61.08;28.05;;;;;;;6.85;100.00;100658.09;5132320;27;20112;-45
2024/03/08 09:35:21;;;;;;;67.20;29.95;;;;;;;7.10;100.00;100660.66;5132149;27;20480;-42
2024/03/08 09:37:51;;;;;;;66.25;29.42;;;;;;;7.11;100.00;100655.28;5132621;27;20160;-44
2024/03/08 09:40:20;;;;;;;65.03;28.55;;;;;;;7.32;100.00;100658.88;5132069;27;20043;-44
2024/03/08 09:42:51;;;;;;;67.00;28.95;;;;;;;7.43;100.00;100651.38;5132244;27;20209;-43
2024/03/08 09:45:22;;;;;;;65.72;29.63;;;;;;;7.59;100.00;100651.59;5132389;27;20127;-45
2024/03/08 09:47:50;;;;;;;62.33;28.17;;;;;;;7.52;100.00;100654.53;5132364;27;20069;-44
2024/03/08 09:50:19;;;;;;;57.53;27.85;;;;;;;7.44;100.00;100654.88;5132340;27;20099;-44
2024/03/08 09:52:50;;;;;;;63.13;28.75;;;;;;;7.30;100.00;100654.56;5132217;27;20391;-44
2024/03/08 09:55:21;;;;;;;59.03;28.75;;;;;;;7.52;100.00;100649.22;5132415;27;20039;-44
2024/03/08 10:00:40;;;;;;;64.65;28.40;;;;;;;7.55;100.00;100644.69;5113356;28;20056;-46
2024/03/08 10:03:09;;;;;;;62.80;28.20;;;;;;;7.48;100.00;100653.81;5115739;28;20096;-44
2024/03/08 10:05:40;;;;;;;64.50;28.38;;;;;;;7.71;100.00;100650.19;5113580;28;20130;-46
2024/03/08 10:08:09;;;;;;;59.50;27.95;;;;;;;7.68;100.00;100653.84;5113637;28;20618;-45
2024/03/08 10:10:38;;;;;;;61.97;27.42;;;;;;;7.68;100.00;100655.66;5113566;28;20101;-44
2024/03/08 10:13:09;;;;;;;69.97;29.25;;;;;;;7.75;100.00;100651.81;5113232;28;20161;-44
2024/03/08 10:15:38;;;;;;;58.85;27.17;;;;;;;7.82;100.00;100653.28;5111896;28;20127;-43
2024/03/08 10:18:07;;;;;;;58.72;28.17;;;;;;;8.03;100.00;100656.81;5111287;28;20131;-45
2024/03/08 10:20:35;;;;;;;64.68;30.17;;;;;;;8.10;100.00;100657.38;5110594;28;20043;-45
2024/03/08 10:23:05;;;;;;;60.10;28.27;;;;;;;7.98;100.00;100656.13;5110816;28;20044;-46
2024/03/08 10:25:39;;;;;;;55.60;26.98;;;;;;;8.02;100.00;100650.63;5110856;28;20051;-44
2024/03/08 10:28:09;;;;;;;61.58;28.30;;;;;;;8.02;100.00;100650.63;5110849;28;20096;-46
2024/03/08 10:30:37;;;;;;;63.30;27.95;;;;;;;8.16;100.00;100658.00;5111020;28;20191;-45
2024/03/08 10:33:06;;;;;;;62.10;27.48;;;;;;;8.24;100.00;100652.34;5110870;28;20047;-45
2024/03/08 10:35:35;;;;;;;60.92;28.38;;;;;;;8.34;100.00;100659.00;5111219;28;20116;-45
2024/03/08 10:38:07;;;;;;;55.67;26.27;;;;;;;8.22;100.00;100652.44;5129777;28;20050;-44
2024/03/08 10:40:39;;;;;;;59.22;28.95;;;;;;;8.29;100.00;100647.69;5132186;27;20043;-44
2024/03/08 10:43:23;;;;;;;58.20;26.98;;;;;;;8.29;100.00;100653.84;5131673;27;20044;-44
2024/03/08 10:46:05;;;;;;;52.50;26.58;;;;;;;8.52;100.00;100644.03;5131090;27;20171;-44
2024/03/08 10:48:42;;;;;;;57.10;27.02;;;;;;;8.66;100.00;100636.28;5125207;28;20384;-44
2024/03/08 10:51:13;;;;;;;52.10;26.13;;;;;;;8.65;100.00;100633.69;5110508;28;20058;-45
2024/03/08 10:53:42;;;;;;;54.78;27.45;;;;;;;8.47;100.00;100633.59;5109891;28;20421;-44
2024/03/08 10:56:10;;;;;;;51.85;24.83;;;;;;;8.71;100.00;100639.59;5110799;28;20055;-45
2024/03/08 10:58:41;;;;;;;49.58;24.60;;;;;;;8.90;100.00;100642.28;5110497;28;20089;-43
2024/03/08 11:01:11;;;;;;;45.10;23.52;;;;;;;8.58;100.00;100644.59;5110568;28;20054;-45
2024/03/08 11:03:48;;;;;;;49.10;23.55;;;;;;;8.50;100.00;100641.47;5110307;28;20040;-45
2024/03/08 11:06:22;;;;;;;47.10;22.50;;;;;;;8.45;100.00;100632.81;5110842;28;20059;-45
2024/03/08 11:08:51;;;;;;;47.50;23.75;;;;;;;8.49;100.00;100637.06;5112295;28;20051;-45
2024/03/08 11:11:34;;;;;;;49.15;25.13;;;;;;;8.29;100.00;100647.69;5114271;28;20047;-43
2024/03/08 11:14:05;;;;;;;52.55;24.65;;;;;;;8.54;100.00;100637.72;5114702;28;20047;-44
2024/03/08 11:16:45;;;;;;;46.40;24.25;;;;;;;8.63;100.00;100636.44;5114658;28;20101;-44
2024/03/08 11:19:28;;;;;;;48.50;23.23;;;;;;;8.79;100.00;100636.59;5114651;28;20446;-44
2024/03/08 11:22:04;;;;;;;48.63;23.92;;;;;;;8.74;100.00;100633.28;5127074;27;20047;-45
2024/03/08 11:24:42;;;;;;;46.17;23.67;;;;;;;8.53;100.00;100629.81;5134749;27;20043;-45
2024/03/08 11:27:11;;;;;;;45.10;24.17;;;;;;;8.68;100.00;100622.91;5134477;27;20043;-44